createdAt,value
2018-12-30T00:00:32.105Z,59.20
2018-12-30T00:01:32.173Z,56.10
2018-12-30T00:02:32.153Z,56.20
2018-12-30T00:03:32.180Z,59.10
2018-12-30T00:04:32.203Z,60.10
2018-12-30T00:05:32.228Z,60.10
2018-12-30T00:06:32.256Z,51.50
2018-12-30T00:07:32.278Z,55.80
2018-12-30T00:08:32.307Z,53.70
2018-12-30T00:09:32.329Z,55.10
2018-12-30T00:10:32.353Z,52.30
2018-12-30T00:11:32.399Z,53.10
2018-12-30T00:12:32.402Z,51.90
2018-12-30T00:13:32.428Z,50.30
2018-12-30T00:14:32.452Z,53.70
2018-12-30T00:15:32.477Z,51.40
2018-12-30T00:16:32.501Z,52.20
2018-12-30T00:17:32.526Z,52.10
2018-12-30T00:18:32.551Z,58.40
2018-12-30T00:19:42.278Z,54.90
2018-12-30T00:20:32.601Z,51.60
2018-12-30T00:21:32.627Z,52.30
2018-12-30T00:22:32.649Z,50.60
2018-12-30T00:23:32.675Z,53.40
2018-12-30T00:24:32.700Z,53.80
2018-12-30T00:25:32.724Z,51.00
2018-12-30T00:26:32.749Z,53.50
2018-12-30T00:27:32.819Z,54.40
2018-12-30T00:28:32.798Z,51.10
2018-12-30T00:29:32.823Z,53.20
2018-12-30T00:30:32.848Z,55.60
2018-12-30T00:31:32.875Z,52.90
2018-12-30T00:32:32.898Z,52.60
2018-12-30T00:33:32.924Z,54.70
2018-12-30T00:34:32.947Z,49.40
2018-12-30T00:35:32.973Z,50.90
2018-12-30T00:36:32.997Z,54.90
2018-12-30T00:37:33.023Z,53.20
2018-12-30T00:38:33.047Z,51.60
2018-12-30T00:39:33.073Z,50.30
2018-12-30T00:40:33.098Z,54.70
2018-12-30T00:41:33.122Z,53.00
2018-12-30T00:42:33.448Z,52.80
2018-12-30T00:43:33.172Z,49.80
2018-12-30T00:44:33.197Z,51.70
2018-12-30T00:45:33.223Z,49.70
2018-12-30T00:46:33.247Z,49.60
2018-12-30T00:47:33.273Z,49.20
2018-12-30T00:48:33.297Z,54.50
2018-12-30T00:49:33.322Z,51.40
2018-12-30T00:50:33.347Z,51.10
2018-12-30T00:51:33.371Z,56.70
2018-12-30T00:52:33.395Z,51.60
2018-12-30T00:53:33.421Z,54.10
2018-12-30T00:54:33.446Z,53.90
2018-12-30T00:55:33.474Z,54.00
2018-12-30T00:56:33.495Z,53.90
2018-12-30T00:57:33.522Z,54.10
2018-12-30T00:58:33.650Z,56.30
2018-12-30T00:59:33.572Z,52.20
2018-12-30T01:00:33.595Z,52.40
2018-12-30T01:01:33.620Z,54.00
2018-12-30T01:02:33.645Z,51.60
2018-12-30T01:03:33.734Z,53.80
2018-12-30T01:04:33.692Z,48.90
2018-12-30T01:05:33.717Z,50.10
2018-12-30T01:06:33.743Z,52.80
2018-12-30T01:07:33.768Z,52.10
2018-12-30T01:08:33.797Z,52.10
2018-12-30T01:09:33.818Z,53.70
2018-12-30T01:10:33.843Z,54.20
2018-12-30T01:11:33.871Z,49.50
2018-12-30T01:12:33.893Z,50.90
2018-12-30T01:13:33.919Z,52.80
2018-12-30T01:14:33.943Z,56.70
2018-12-30T01:15:33.967Z,55.70
2018-12-30T01:16:33.992Z,54.20
2018-12-30T01:17:34.021Z,51.60
2018-12-30T01:18:34.045Z,55.10
2018-12-30T01:19:34.070Z,52.70
2018-12-30T01:20:34.091Z,54.30
2018-12-30T01:21:34.116Z,56.20
2018-12-30T01:22:34.156Z,50.00
2018-12-30T01:23:34.166Z,54.00
2018-12-30T01:24:34.193Z,55.80
2018-12-30T01:25:34.216Z,52.90
2018-12-30T01:26:34.244Z,51.30
2018-12-30T01:27:34.269Z,53.50
2018-12-30T01:28:34.289Z,49.30
2018-12-30T01:29:34.315Z,50.80
2018-12-30T01:30:34.340Z,53.40
2018-12-30T01:31:34.365Z,57.30
2018-12-30T01:32:34.390Z,54.90
2018-12-30T01:33:34.414Z,49.90
2018-12-30T01:34:34.439Z,52.00
2018-12-30T01:35:34.464Z,50.90
2018-12-30T01:36:34.489Z,52.70
2018-12-30T01:37:34.561Z,56.30
2018-12-30T01:38:34.540Z,52.80
2018-12-30T01:39:34.565Z,50.70
2018-12-30T01:40:34.590Z,56.80
2018-12-30T01:41:34.614Z,51.70
2018-12-30T01:42:34.640Z,51.80
2018-12-30T01:43:34.664Z,52.80
2018-12-30T01:44:34.689Z,53.00
2018-12-30T01:45:34.714Z,47.50
2018-12-30T01:46:34.742Z,48.40
2018-12-30T01:47:34.765Z,51.60
2018-12-30T01:48:34.789Z,49.80
2018-12-30T01:49:34.814Z,46.90
2018-12-30T01:50:34.839Z,51.70
2018-12-30T01:51:34.865Z,48.20
2018-12-30T01:52:34.890Z,50.60
2018-12-30T01:53:34.915Z,50.80
2018-12-30T01:54:34.941Z,53.80
2018-12-30T01:55:34.965Z,51.40
2018-12-30T01:56:34.990Z,48.70
2018-12-30T01:57:35.014Z,47.10
2018-12-30T01:58:35.041Z,51.10
2018-12-30T01:59:35.065Z,51.80
2018-12-30T02:00:35.089Z,48.50
2018-12-30T02:01:35.115Z,48.80
2018-12-30T02:02:35.141Z,49.40
2018-12-30T02:03:35.165Z,48.10
2018-12-30T02:04:35.190Z,48.30
2018-12-30T02:05:35.215Z,49.80
2018-12-30T02:06:35.241Z,44.70
2018-12-30T02:07:35.267Z,47.50
2018-12-30T02:08:35.291Z,48.70
2018-12-30T02:09:35.319Z,45.10
2018-12-30T02:10:35.391Z,48.90
2018-12-30T02:11:35.366Z,46.00
2018-12-30T02:12:35.392Z,50.20
2018-12-30T02:13:35.416Z,45.80
2018-12-30T02:14:35.441Z,47.10
2018-12-30T02:15:35.466Z,45.20
2018-12-30T02:16:35.490Z,43.30
2018-12-30T02:17:35.518Z,45.80
2018-12-30T02:18:35.541Z,45.20
2018-12-30T02:19:35.569Z,46.50
2018-12-30T02:20:35.593Z,49.70
2018-12-30T02:21:41.034Z,51.40
2018-12-30T02:22:35.643Z,43.30
2018-12-30T02:23:35.668Z,40.60
2018-12-30T02:24:35.691Z,44.10
2018-12-30T02:25:35.716Z,46.80
2018-12-30T02:26:35.742Z,47.70
2018-12-30T02:27:35.769Z,45.50
2018-12-30T02:28:35.794Z,44.20
2018-12-30T02:29:35.820Z,46.50
2018-12-30T02:30:35.844Z,39.60
2018-12-30T02:31:35.867Z,44.50
2018-12-30T02:32:35.893Z,46.40
2018-12-30T02:33:35.918Z,45.60
2018-12-30T02:34:35.943Z,46.30
2018-12-30T02:35:35.968Z,47.20
2018-12-30T02:36:36.002Z,47.40
2018-12-30T02:37:36.020Z,48.10
2018-12-30T02:38:36.045Z,46.30
2018-12-30T02:39:36.071Z,41.60
2018-12-30T02:40:36.093Z,44.70
2018-12-30T02:41:36.120Z,43.30
2018-12-30T02:42:36.145Z,39.10
2018-12-30T02:43:36.169Z,44.60
2018-12-30T02:44:36.197Z,44.60
2018-12-30T02:45:36.222Z,44.70
2018-12-30T02:46:36.245Z,45.20
2018-12-30T02:47:36.270Z,44.00
2018-12-30T02:48:36.295Z,42.90
2018-12-30T02:49:36.321Z,40.70
2018-12-30T02:50:36.347Z,43.30
2018-12-30T02:51:36.371Z,41.10
2018-12-30T02:52:36.397Z,40.30
2018-12-30T02:53:36.421Z,42.80
2018-12-30T02:54:36.449Z,42.00
2018-12-30T02:55:36.473Z,40.50
2018-12-30T02:56:36.498Z,40.30
2018-12-30T02:57:36.522Z,38.10
2018-12-30T02:58:36.548Z,41.70
2018-12-30T02:59:36.573Z,36.80
2018-12-30T03:00:36.600Z,40.20
2018-12-30T03:01:36.623Z,39.10
2018-12-30T03:02:36.650Z,40.70
2018-12-30T03:03:36.680Z,37.40
2018-12-30T03:04:36.700Z,40.50
2018-12-30T03:05:36.725Z,44.00
2018-12-30T03:06:36.750Z,38.80
2018-12-30T03:07:36.776Z,41.70
2018-12-30T03:08:36.799Z,39.20
2018-12-30T03:09:36.826Z,39.50
2018-12-30T03:10:36.853Z,39.00
2018-12-30T03:11:36.876Z,38.30
2018-12-30T03:12:36.902Z,36.90
2018-12-30T03:13:36.927Z,40.10
2018-12-30T03:14:36.953Z,38.20
2018-12-30T03:15:36.979Z,33.60
2018-12-30T03:16:37.002Z,38.00
2018-12-30T03:17:37.027Z,37.80
2018-12-30T03:18:37.053Z,38.80
2018-12-30T03:19:37.081Z,39.80
2018-12-30T03:20:37.104Z,40.60
2018-12-30T03:21:37.129Z,41.90
2018-12-30T03:22:37.164Z,39.00
2018-12-30T03:23:37.179Z,42.00
2018-12-30T03:24:37.204Z,38.90
2018-12-30T03:25:37.230Z,43.00
2018-12-30T03:26:37.256Z,41.10
2018-12-30T03:27:37.281Z,44.70
2018-12-30T03:28:37.308Z,41.90
2018-12-30T03:29:37.332Z,44.90
2018-12-30T03:30:37.357Z,44.60
2018-12-30T03:31:37.384Z,43.50
2018-12-30T03:32:37.409Z,45.10
2018-12-30T03:33:37.434Z,43.40
2018-12-30T03:34:37.460Z,44.00
2018-12-30T03:35:37.483Z,42.20
2018-12-30T03:36:37.509Z,38.40
2018-12-30T03:37:37.534Z,42.00
2018-12-30T03:38:37.558Z,41.30
2018-12-30T03:39:37.583Z,44.20
2018-12-30T03:40:37.608Z,43.00
2018-12-30T03:41:37.635Z,38.60
2018-12-30T03:42:37.661Z,43.70
2018-12-30T03:43:37.686Z,41.20
2018-12-30T03:44:37.710Z,39.60
2018-12-30T03:45:37.734Z,41.30
2018-12-30T03:46:37.760Z,42.70
2018-12-30T03:47:37.792Z,40.10
2018-12-30T03:48:37.810Z,44.40
2018-12-30T03:49:37.850Z,37.90
2018-12-30T03:50:37.881Z,39.10
2018-12-30T03:51:37.890Z,46.80
2018-12-30T03:52:37.912Z,41.90
2018-12-30T03:53:37.938Z,38.80
2018-12-30T03:54:37.969Z,43.40
2018-12-30T03:55:37.989Z,42.10
2018-12-30T03:56:38.016Z,40.30
2018-12-30T03:57:38.041Z,37.70
2018-12-30T03:58:38.065Z,40.70
2018-12-30T03:59:38.091Z,43.40
2018-12-30T04:00:38.116Z,43.00
2018-12-30T04:01:38.142Z,44.00
2018-12-30T04:02:38.167Z,44.70
2018-12-30T04:03:38.193Z,44.60
2018-12-30T04:04:38.215Z,41.60
2018-12-30T04:05:38.243Z,37.80
2018-12-30T04:06:38.271Z,43.30
2018-12-30T04:07:38.293Z,39.90
2018-12-30T04:08:38.367Z,35.10
2018-12-30T04:09:38.351Z,40.60
2018-12-30T04:10:38.371Z,36.80
2018-12-30T04:11:38.397Z,36.10
2018-12-30T04:12:38.421Z,35.20
2018-12-30T04:13:38.445Z,38.90
2018-12-30T04:14:38.471Z,41.00
2018-12-30T04:15:38.496Z,38.50
2018-12-30T04:16:38.521Z,37.70
2018-12-30T04:17:38.549Z,38.90
2018-12-30T04:18:38.574Z,38.80
2018-12-30T04:19:38.598Z,46.10
2018-12-30T04:20:38.623Z,37.70
2018-12-30T04:21:38.650Z,37.80
2018-12-30T04:22:38.679Z,38.60
2018-12-30T04:23:38.699Z,35.80
2018-12-30T04:24:38.725Z,35.00
2018-12-30T04:25:38.755Z,40.60
2018-12-30T04:26:38.775Z,36.40
2018-12-30T04:27:38.810Z,34.20
2018-12-30T04:28:38.864Z,34.20
2018-12-30T04:29:38.850Z,35.40
2018-12-30T04:30:38.877Z,38.80
2018-12-30T04:31:38.903Z,36.50
2018-12-30T04:32:38.926Z,39.60
2018-12-30T04:33:38.958Z,36.80
2018-12-30T04:34:38.978Z,33.80
2018-12-30T04:35:39.004Z,33.50
2018-12-30T04:36:39.028Z,36.60
2018-12-30T04:37:39.055Z,36.90
2018-12-30T04:38:39.080Z,33.90
2018-12-30T04:39:39.117Z,32.40
2018-12-30T04:40:39.129Z,34.90
2018-12-30T04:41:39.155Z,31.20
2018-12-30T04:42:39.183Z,29.20
2018-12-30T04:43:39.215Z,34.20
2018-12-30T04:44:39.249Z,31.50
2018-12-30T04:45:39.255Z,30.70
2018-12-30T04:46:39.290Z,30.60
2018-12-30T04:47:39.309Z,37.10
2018-12-30T04:48:39.333Z,32.70
2018-12-30T04:49:39.358Z,32.60
2018-12-30T04:50:40.059Z,33.10
2018-12-30T04:51:39.412Z,36.90
2018-12-30T04:52:39.434Z,36.10
2018-12-30T04:53:39.461Z,30.80
2018-12-30T04:54:39.486Z,34.70
2018-12-30T04:55:39.513Z,30.10
2018-12-30T04:56:39.535Z,29.90
2018-12-30T04:57:39.561Z,28.70
2018-12-30T04:58:39.587Z,32.10
2018-12-30T04:59:39.613Z,27.70
2018-12-30T05:00:39.637Z,28.30
2018-12-30T05:01:39.662Z,27.20
2018-12-30T05:02:39.689Z,28.70
2018-12-30T05:03:39.718Z,29.50
2018-12-30T05:04:39.738Z,32.10
2018-12-30T05:05:39.765Z,26.50
2018-12-30T05:06:39.791Z,30.80
2018-12-30T05:07:39.817Z,35.30
2018-12-30T05:08:39.840Z,29.80
2018-12-30T05:09:39.865Z,36.00
2018-12-30T05:10:39.899Z,28.00
2018-12-30T05:11:39.916Z,30.20
2018-12-30T05:12:39.942Z,31.80
2018-12-30T05:13:39.968Z,29.50
2018-12-30T05:14:39.993Z,32.40
2018-12-30T05:15:40.019Z,32.60
2018-12-30T05:16:40.043Z,31.90
2018-12-30T05:17:40.069Z,29.50
2018-12-30T05:18:40.094Z,29.50
2018-12-30T05:19:40.119Z,31.70
2018-12-30T05:20:40.143Z,31.00
2018-12-30T05:21:40.170Z,31.30
2018-12-30T05:22:40.195Z,29.40
2018-12-30T05:23:40.222Z,30.10
2018-12-30T05:24:40.245Z,31.70
2018-12-30T05:25:40.271Z,29.30
2018-12-30T05:26:40.295Z,31.40
2018-12-30T05:27:40.323Z,29.00
2018-12-30T05:28:40.346Z,28.80
2018-12-30T05:29:40.373Z,27.20
2018-12-30T05:30:40.398Z,32.80
2018-12-30T05:31:40.426Z,31.70
2018-12-30T05:32:40.448Z,32.30
2018-12-30T05:33:40.475Z,34.20
2018-12-30T05:34:40.499Z,33.90
2018-12-30T05:35:40.525Z,31.70
2018-12-30T05:36:40.549Z,24.70
2018-12-30T05:37:40.573Z,27.30
2018-12-30T05:38:40.600Z,28.70
2018-12-30T05:39:40.626Z,24.50
2018-12-30T05:40:40.652Z,29.30
2018-12-30T05:41:40.679Z,30.50
2018-12-30T05:42:40.707Z,29.70
2018-12-30T05:43:40.729Z,32.30
2018-12-30T05:44:40.754Z,35.30
2018-12-30T05:45:40.778Z,28.30
2018-12-30T05:46:40.804Z,31.70
2018-12-30T05:47:40.830Z,28.30
2018-12-30T05:48:40.856Z,28.30
2018-12-30T05:49:40.880Z,30.50
2018-12-30T05:50:40.905Z,27.80
2018-12-30T05:51:40.933Z,27.00
2018-12-30T05:52:42.099Z,25.70
2018-12-30T05:53:40.982Z,27.70
2018-12-30T05:54:41.010Z,26.20
2018-12-30T05:55:41.032Z,26.70
2018-12-30T05:56:41.057Z,25.80
2018-12-30T05:57:41.083Z,29.30
2018-12-30T05:58:41.107Z,26.40
2018-12-30T05:59:41.135Z,27.60
2018-12-30T06:00:41.159Z,26.00
2018-12-30T06:01:41.184Z,23.70
2018-12-30T06:02:41.212Z,27.30
2018-12-30T06:03:41.243Z,27.70
2018-12-30T06:04:41.261Z,27.50
2018-12-30T06:05:41.287Z,28.90
2018-12-30T06:06:41.314Z,29.00
2018-12-30T06:07:41.342Z,25.80
2018-12-30T06:08:41.366Z,25.50
2018-12-30T06:09:41.388Z,27.60
2018-12-30T06:10:41.415Z,23.00
2018-12-30T06:11:41.441Z,27.20
2018-12-30T06:12:41.465Z,24.20
2018-12-30T06:13:41.491Z,28.30
2018-12-30T06:14:41.517Z,27.10
2018-12-30T06:15:41.544Z,24.80
2018-12-30T06:16:41.568Z,23.60
2018-12-30T06:17:41.592Z,27.10
2018-12-30T06:18:41.617Z,24.20
2018-12-30T06:19:41.644Z,22.30
2018-12-30T06:20:41.668Z,20.90
2018-12-30T06:21:41.693Z,22.20
2018-12-30T06:22:49.313Z,20.50
2018-12-30T06:23:41.745Z,20.90
2018-12-30T06:24:41.770Z,19.50
2018-12-30T06:25:41.802Z,22.50
2018-12-30T06:26:41.821Z,22.50
2018-12-30T06:27:41.848Z,21.60
2018-12-30T06:28:41.872Z,20.90
2018-12-30T06:29:41.899Z,22.00
2018-12-30T06:30:41.924Z,22.20
2018-12-30T06:31:41.949Z,20.60
2018-12-30T06:32:41.974Z,19.70
2018-12-30T06:33:42.000Z,21.00
2018-12-30T06:34:42.025Z,19.70
2018-12-30T06:35:42.052Z,19.10
2018-12-30T06:36:42.076Z,18.60
2018-12-30T06:37:42.105Z,17.00
2018-12-30T06:38:42.129Z,19.00
2018-12-30T06:39:42.155Z,17.20
2018-12-30T06:40:42.180Z,20.30
2018-12-30T06:41:42.203Z,18.60
2018-12-30T06:42:42.230Z,18.80
2018-12-30T06:43:42.256Z,19.20
2018-12-30T06:44:42.281Z,20.60
2018-12-30T06:45:42.307Z,23.20
2018-12-30T06:46:42.333Z,20.00
2018-12-30T06:47:42.366Z,20.70
2018-12-30T06:48:42.383Z,20.40
2018-12-30T06:49:42.410Z,19.00
2018-12-30T06:50:42.435Z,20.50
2018-12-30T06:51:42.462Z,20.50
2018-12-30T06:52:42.486Z,21.30
2018-12-30T06:53:42.511Z,21.00
2018-12-30T06:54:42.536Z,20.60
2018-12-30T06:55:42.562Z,20.70
2018-12-30T06:56:42.586Z,23.30
2018-12-30T06:57:42.613Z,19.80
2018-12-30T06:58:42.641Z,19.90
2018-12-30T06:59:42.665Z,20.70
2018-12-30T07:00:42.693Z,20.70
2018-12-30T07:01:42.716Z,20.20
2018-12-30T07:02:42.743Z,20.20
2018-12-30T07:03:42.769Z,23.00
2018-12-30T07:04:42.795Z,23.10
2018-12-30T07:05:42.818Z,24.20
2018-12-30T07:06:42.846Z,22.60
2018-12-30T07:07:42.868Z,22.90
2018-12-30T07:08:42.895Z,17.90
2018-12-30T07:09:42.919Z,18.60
2018-12-30T07:10:42.946Z,22.00
2018-12-30T07:11:42.971Z,19.70
2018-12-30T07:12:42.996Z,21.40
2018-12-30T07:13:43.030Z,20.00
2018-12-30T07:14:43.049Z,23.70
2018-12-30T07:15:43.075Z,23.50
2018-12-30T07:16:43.099Z,20.50
2018-12-30T07:17:43.125Z,23.00
2018-12-30T07:18:43.149Z,21.30
2018-12-30T07:19:43.175Z,20.20
2018-12-30T07:20:43.200Z,16.60
2018-12-30T07:21:43.226Z,21.60
2018-12-30T07:22:43.251Z,21.20
2018-12-30T07:23:43.277Z,17.90
2018-12-30T07:24:43.305Z,18.10
2018-12-30T07:25:43.328Z,14.60
2018-12-30T07:26:43.406Z,18.10
2018-12-30T07:27:43.380Z,18.90
2018-12-30T07:28:43.404Z,17.50
2018-12-30T07:29:43.430Z,16.30
2018-12-30T07:30:43.455Z,17.40
2018-12-30T07:31:43.481Z,17.20
2018-12-30T07:32:43.507Z,17.10
2018-12-30T07:33:43.530Z,15.70
2018-12-30T07:34:43.558Z,18.40
2018-12-30T07:35:43.583Z,18.40
2018-12-30T07:36:43.610Z,15.70
2018-12-30T07:37:43.634Z,20.70
2018-12-30T07:38:43.658Z,22.60
2018-12-30T07:39:43.685Z,20.90
2018-12-30T07:40:43.711Z,18.30
2018-12-30T07:41:43.736Z,18.70
2018-12-30T07:42:43.762Z,20.60
2018-12-30T07:43:43.788Z,21.20
2018-12-30T07:44:43.820Z,16.90
2018-12-30T07:45:43.838Z,17.90
2018-12-30T07:46:43.864Z,18.90
2018-12-30T07:47:43.889Z,22.00
2018-12-30T07:48:43.958Z,17.70
2018-12-30T07:49:43.942Z,20.60
2018-12-30T07:50:43.964Z,18.90
2018-12-30T07:51:43.993Z,21.20
2018-12-30T07:52:44.016Z,17.30
2018-12-30T07:53:44.043Z,18.10
2018-12-30T07:54:44.069Z,18.70
2018-12-30T07:55:44.093Z,16.50
2018-12-30T07:56:44.120Z,15.90
2018-12-30T07:57:44.146Z,15.60
2018-12-30T07:58:44.171Z,15.20
2018-12-30T07:59:44.198Z,14.90
2018-12-30T08:00:44.222Z,22.00
2018-12-30T08:01:44.248Z,18.20
2018-12-30T08:02:44.273Z,17.80
2018-12-30T08:03:44.298Z,15.70
2018-12-30T08:04:44.375Z,18.30
2018-12-30T08:05:44.349Z,19.20
2018-12-30T08:06:44.378Z,20.60
2018-12-30T08:07:44.405Z,21.50
2018-12-30T08:08:44.429Z,15.30
2018-12-30T08:09:44.453Z,18.40
2018-12-30T08:10:44.489Z,19.20
2018-12-30T08:11:44.504Z,15.70
2018-12-30T08:12:44.528Z,20.30
2018-12-30T08:13:44.555Z,16.50
2018-12-30T08:14:44.580Z,18.50
2018-12-30T08:15:44.605Z,20.50
2018-12-30T08:16:44.632Z,16.70
2018-12-30T08:17:44.657Z,17.90
2018-12-30T08:18:44.702Z,20.40
2018-12-30T08:19:44.709Z,22.60
2018-12-30T08:20:44.737Z,18.40
2018-12-30T08:21:44.763Z,18.20
2018-12-30T08:22:44.787Z,17.90
2018-12-30T08:23:44.814Z,19.20
2018-12-30T08:24:44.837Z,21.40
2018-12-30T08:25:44.865Z,17.10
2018-12-30T08:26:44.888Z,19.10
2018-12-30T08:27:44.915Z,19.30
2018-12-30T08:28:45.450Z,16.00
2018-12-30T08:29:44.966Z,15.90
2018-12-30T08:30:44.991Z,15.10
2018-12-30T08:31:45.019Z,14.80
2018-12-30T08:32:45.043Z,17.80
2018-12-30T08:33:45.068Z,16.20
2018-12-30T08:34:45.095Z,18.10
2018-12-30T08:35:45.121Z,14.50
2018-12-30T08:36:45.146Z,17.50
2018-12-30T08:37:45.245Z,16.40
2018-12-30T08:38:45.197Z,16.50
2018-12-30T08:39:45.225Z,15.40
2018-12-30T08:40:45.253Z,20.00
2018-12-30T08:41:45.274Z,20.60
2018-12-30T08:42:45.299Z,21.40
2018-12-30T08:43:45.326Z,22.00
2018-12-30T08:44:45.358Z,17.80
2018-12-30T08:45:45.377Z,22.30
2018-12-30T08:46:45.406Z,20.80
2018-12-30T08:47:45.434Z,16.30
2018-12-30T08:48:45.458Z,14.70
2018-12-30T08:49:45.481Z,17.30
2018-12-30T08:50:45.507Z,16.50
2018-12-30T08:51:45.533Z,17.40
2018-12-30T08:52:45.558Z,16.70
2018-12-30T08:53:45.584Z,17.50
2018-12-30T08:54:45.610Z,17.50
2018-12-30T08:55:45.636Z,20.70
2018-12-30T08:56:45.661Z,15.70
2018-12-30T08:57:45.688Z,20.10
2018-12-30T08:58:45.713Z,17.00
2018-12-30T08:59:45.740Z,15.90
2018-12-30T09:00:45.765Z,14.80
2018-12-30T09:01:45.792Z,19.10
2018-12-30T09:02:45.818Z,18.60
2018-12-30T09:03:45.845Z,20.00
2018-12-30T09:04:45.869Z,18.30
2018-12-30T09:05:45.900Z,20.10
2018-12-30T09:06:45.923Z,15.30
2018-12-30T09:07:45.949Z,17.80
2018-12-30T09:08:46.061Z,15.70
2018-12-30T09:09:46.000Z,17.70
2018-12-30T09:10:46.028Z,17.80
2018-12-30T09:11:46.054Z,19.20
2018-12-30T09:12:46.081Z,18.00
2018-12-30T09:13:46.105Z,13.60
2018-12-30T09:14:46.132Z,16.30
2018-12-30T09:15:46.160Z,21.00
2018-12-30T09:16:46.184Z,16.80
2018-12-30T09:17:46.210Z,17.00
2018-12-30T09:18:46.237Z,19.30
2018-12-30T09:19:46.270Z,18.50
2018-12-30T09:20:46.289Z,17.60
2018-12-30T09:21:46.316Z,18.20
2018-12-30T09:22:46.342Z,17.30
2018-12-30T09:23:46.375Z,17.00
2018-12-30T09:24:46.405Z,15.20
2018-12-30T09:25:46.422Z,18.00
2018-12-30T09:26:46.449Z,17.20
2018-12-30T09:27:46.476Z,19.20
2018-12-30T09:28:46.501Z,19.10
2018-12-30T09:29:46.526Z,18.40
2018-12-30T09:30:46.555Z,19.00
2018-12-30T09:31:46.580Z,16.50
2018-12-30T09:32:46.606Z,17.50
2018-12-30T09:33:46.632Z,14.00
2018-12-30T09:34:46.659Z,14.70
2018-12-30T09:35:46.685Z,16.20
2018-12-30T09:36:46.714Z,15.00
2018-12-30T09:37:46.739Z,17.40
2018-12-30T09:38:46.766Z,17.70
2018-12-30T09:39:46.794Z,16.20
2018-12-30T09:40:46.821Z,21.20
2018-12-30T09:41:46.848Z,16.80
2018-12-30T09:42:46.872Z,17.60
2018-12-30T09:43:46.899Z,20.10
2018-12-30T09:44:46.925Z,18.60
2018-12-30T09:45:46.952Z,15.00
2018-12-30T09:46:46.979Z,15.90
2018-12-30T09:47:47.006Z,17.30
2018-12-30T09:48:47.032Z,15.90
2018-12-30T09:49:47.059Z,14.60
2018-12-30T09:50:47.088Z,17.60
2018-12-30T09:51:47.113Z,16.70
2018-12-30T09:52:47.139Z,19.50
2018-12-30T09:53:47.166Z,18.40
2018-12-30T09:54:47.193Z,18.20
2018-12-30T09:55:47.223Z,16.00
2018-12-30T09:56:47.248Z,19.30
2018-12-30T09:57:47.274Z,18.80
2018-12-30T09:58:47.303Z,19.40
2018-12-30T09:59:47.328Z,17.80
2018-12-30T10:00:47.608Z,18.70
2018-12-30T10:01:47.382Z,18.10
2018-12-30T10:02:47.408Z,18.20
2018-12-30T10:03:47.437Z,20.30
2018-12-30T10:04:47.463Z,23.90
2018-12-30T10:05:47.490Z,16.20
2018-12-30T10:06:47.516Z,22.10
2018-12-30T10:07:47.546Z,16.30
2018-12-30T10:08:47.569Z,16.40
2018-12-30T10:09:47.597Z,16.40
2018-12-30T10:10:47.626Z,17.20
2018-12-30T10:11:47.652Z,14.10
2018-12-30T10:12:47.679Z,14.40
2018-12-30T10:13:47.711Z,15.10
2018-12-30T10:14:47.732Z,18.30
2018-12-30T10:15:47.762Z,17.50
2018-12-30T10:16:47.857Z,17.40
2018-12-30T10:17:47.813Z,20.50
2018-12-30T10:18:47.841Z,18.80
2018-12-30T10:19:47.871Z,17.20
2018-12-30T10:20:47.894Z,20.50
2018-12-30T10:21:47.923Z,20.30
2018-12-30T10:22:47.950Z,22.30
2018-12-30T10:23:52.974Z,16.50
2018-12-30T10:24:48.002Z,19.90
2018-12-30T10:25:48.030Z,16.40
2018-12-30T10:26:48.057Z,18.40
2018-12-30T10:27:48.084Z,22.40
2018-12-30T10:28:48.111Z,20.00
2018-12-30T10:29:48.139Z,22.10
2018-12-30T10:30:48.165Z,20.50
2018-12-30T10:31:48.197Z,19.00
2018-12-30T10:32:48.218Z,20.80
2018-12-30T10:33:48.245Z,17.90
2018-12-30T10:34:48.273Z,17.20
2018-12-30T10:35:48.363Z,17.90
2018-12-30T10:36:48.327Z,16.20
2018-12-30T10:37:48.356Z,18.00
2018-12-30T10:38:48.381Z,18.30
2018-12-30T10:39:48.408Z,16.60
2018-12-30T10:40:48.434Z,17.80
2018-12-30T10:41:48.462Z,20.30
2018-12-30T10:42:48.489Z,24.30
2018-12-30T10:43:48.517Z,26.50
2018-12-30T10:44:48.545Z,23.50
2018-12-30T10:45:48.570Z,23.10
2018-12-30T10:46:48.597Z,24.00
2018-12-30T10:47:48.625Z,18.80
2018-12-30T10:48:48.651Z,16.90
2018-12-30T10:49:48.679Z,19.40
2018-12-30T10:50:48.707Z,21.60
2018-12-30T10:51:48.733Z,13.90
2018-12-30T10:52:48.759Z,20.10
2018-12-30T10:53:48.786Z,19.10
2018-12-30T10:54:48.815Z,19.20
2018-12-30T10:55:48.842Z,14.10
2018-12-30T10:56:48.870Z,20.00
2018-12-30T10:57:48.902Z,17.40
2018-12-30T10:58:48.924Z,13.20
2018-12-30T10:59:48.950Z,16.80
2018-12-30T11:00:48.977Z,22.70
2018-12-30T11:01:49.007Z,25.50
2018-12-30T11:02:49.031Z,23.70
2018-12-30T11:03:49.059Z,23.40
2018-12-30T11:04:49.086Z,20.40
2018-12-30T11:05:49.112Z,22.10
2018-12-30T11:06:49.140Z,21.30
2018-12-30T11:07:49.169Z,21.50
2018-12-30T11:08:49.194Z,18.60
2018-12-30T11:09:49.222Z,20.30
2018-12-30T11:10:49.249Z,20.00
2018-12-30T11:11:49.279Z,18.50
2018-12-30T11:12:49.303Z,17.10
2018-12-30T11:13:49.330Z,14.50
2018-12-30T11:14:49.357Z,17.50
2018-12-30T11:15:49.386Z,17.40
2018-12-30T11:16:49.412Z,14.50
2018-12-30T11:17:49.440Z,18.40
2018-12-30T11:18:49.466Z,15.90
2018-12-30T11:19:49.496Z,16.50
2018-12-30T11:20:49.522Z,15.20
2018-12-30T11:21:49.548Z,15.00
2018-12-30T11:22:49.576Z,17.80
2018-12-30T11:23:49.604Z,18.80
2018-12-30T11:24:49.628Z,17.10
2018-12-30T11:25:49.657Z,17.70
2018-12-30T11:26:49.683Z,22.60
2018-12-30T11:27:49.713Z,20.20
2018-12-30T11:28:49.739Z,22.80
2018-12-30T11:29:49.766Z,25.70
2018-12-30T11:30:49.794Z,19.00
2018-12-30T11:31:49.822Z,18.40
2018-12-30T11:32:49.848Z,18.40
2018-12-30T11:33:49.878Z,20.20
2018-12-30T11:34:49.905Z,22.90
2018-12-30T11:35:49.931Z,20.80
2018-12-30T11:36:49.960Z,22.70
2018-12-30T11:37:49.984Z,22.90
2018-12-30T11:38:50.013Z,23.90
2018-12-30T11:39:50.041Z,26.70
2018-12-30T11:40:50.067Z,32.70
2018-12-30T11:41:50.095Z,54.70
2018-12-30T11:42:50.123Z,48.20
2018-12-30T11:43:50.150Z,34.00
2018-12-30T11:44:50.177Z,23.50
2018-12-30T11:45:50.205Z,19.30
2018-12-30T11:46:50.233Z,18.00
2018-12-30T11:47:50.262Z,13.10
2018-12-30T11:48:50.288Z,18.20
2018-12-30T11:49:50.317Z,19.20
2018-12-30T11:50:50.427Z,17.10
2018-12-30T11:51:50.371Z,14.10
2018-12-30T11:52:50.398Z,18.10
2018-12-30T11:53:50.425Z,14.50
2018-12-30T11:54:50.458Z,15.00
2018-12-30T11:55:50.479Z,15.50
2018-12-30T11:56:50.509Z,13.50
2018-12-30T11:57:50.536Z,15.10
2018-12-30T11:58:50.563Z,16.10
2018-12-30T11:59:50.592Z,12.30
2018-12-30T12:00:50.619Z,16.00
2018-12-30T12:01:50.646Z,13.70
2018-12-30T12:02:50.675Z,15.40
2018-12-30T12:03:50.706Z,13.10
2018-12-30T12:04:50.730Z,14.10
2018-12-30T12:05:50.757Z,12.80
2018-12-30T12:06:50.784Z,15.30
2018-12-30T12:07:50.813Z,11.40
2018-12-30T12:08:50.841Z,14.30
2018-12-30T12:09:50.870Z,15.40
2018-12-30T12:10:50.896Z,15.30
2018-12-30T12:11:50.924Z,16.60
2018-12-30T12:12:50.952Z,13.30
2018-12-30T12:13:50.986Z,15.30
2018-12-30T12:14:51.007Z,14.70
2018-12-30T12:15:51.037Z,17.40
2018-12-30T12:16:51.062Z,16.00
2018-12-30T12:17:51.090Z,13.10
2018-12-30T12:18:51.119Z,13.90
2018-12-30T12:19:51.147Z,15.80
2018-12-30T12:20:51.174Z,17.30
2018-12-30T12:21:51.201Z,18.60
2018-12-30T12:22:51.229Z,14.90
2018-12-30T12:23:51.258Z,16.90
2018-12-30T12:24:51.286Z,18.80
2018-12-30T12:25:51.313Z,16.70
2018-12-30T12:26:51.341Z,16.10
2018-12-30T12:27:51.368Z,16.40
2018-12-30T12:28:51.396Z,12.60
2018-12-30T12:29:51.427Z,13.00
2018-12-30T12:30:51.453Z,11.10
2018-12-30T12:31:51.483Z,12.60
2018-12-30T12:32:51.508Z,13.60
2018-12-30T12:33:51.540Z,14.60
2018-12-30T12:34:51.566Z,16.30
2018-12-30T12:35:51.598Z,12.20
2018-12-30T12:36:51.620Z,13.40
2018-12-30T12:37:51.649Z,16.20
2018-12-30T12:38:51.677Z,14.80
2018-12-30T12:39:51.706Z,13.60
2018-12-30T12:40:51.737Z,12.70
2018-12-30T12:41:51.762Z,14.30
2018-12-30T12:42:51.790Z,13.00
2018-12-30T12:43:51.818Z,12.40
2018-12-30T12:44:51.846Z,12.40
2018-12-30T12:45:51.875Z,13.70
2018-12-30T12:46:51.903Z,13.00
2018-12-30T12:47:51.932Z,11.20
2018-12-30T12:48:51.959Z,11.80
2018-12-30T12:49:51.989Z,12.20
2018-12-30T12:50:52.017Z,13.50
2018-12-30T12:51:52.045Z,14.00
2018-12-30T12:52:52.072Z,11.50